Time;durP1;ratioP1;P1;durP2;ratioP2;P2;SDS_P1;SDS_P2;PMS_P1;PMS_P2;Temp;Humidity;BMP_temperature;BMP_pressure;BME280_temperature;BME280_humidity;BME280_pressure;Samples;Min_cycle;Max_cycle;Signal;HPM_P1;HPM_P2
2021/06/17 03:37:09;;;;;;;4.33;3.93;;;;;;;21.02;53.59;98425.50;6991360;28;20210;-85
2021/06/17 03:40:32;;;;;;;5.17;4.17;;;;;;;20.82;54.52;98428.28;6955011;28;20228;-84
2021/06/17 03:43:54;;;;;;;5.20;4.50;;;;;;;21.10;54.06;98435.06;6973773;28;20200;-85
2021/06/17 03:47:17;;;;;;;3.90;3.60;;;;;;;21.00;53.40;98426.88;7041248;22;20233;-86
2021/06/17 03:50:39;;;;;;;9.50;4.03;;;;;;;21.23;53.49;98457.19;7017198;28;20207;-86
2021/06/17 03:54:03;;;;;;;5.63;4.20;;;;;;;21.27;52.65;98464.59;7032770;28;20548;-86
2021/06/17 03:57:25;;;;;;;7.47;4.33;;;;;;;21.32;52.95;98469.22;7058129;28;20222;-86
2021/06/17 04:00:46;;;;;;;4.93;4.13;;;;;;;;;;7059970;28;20225;-87
2021/06/17 04:04:10;;;;;;;4.77;4.23;;;;;;;20.93;53.37;98467.50;7054568;28;20205;-86
2021/06/17 04:07:34;;;;;;;4.63;4.23;;;;;;;21.14;53.75;98481.63;7058265;28;20224;-86
2021/06/17 04:10:59;;;;;;;6.37;4.03;;;;;;;21.57;52.24;98489.13;7060298;28;20287;-85
2021/06/17 04:14:21;;;;;;;5.90;4.50;;;;;;;21.77;51.09;98469.81;7060900;28;20210;-85
2021/06/17 04:17:45;;;;;;;7.20;4.10;;;;;;;21.79;51.29;98488.75;7060051;28;20227;-84
2021/06/17 04:21:08;;;;;;;6.10;4.10;;;;;;;21.82;51.66;98486.25;7059555;28;20205;-85
2021/06/17 04:24:33;;;;;;;4.63;4.13;;;;;;;21.89;50.96;98467.53;7059566;28;20200;-82
2021/06/17 04:27:59;;;;;;;4.33;3.93;;;;;;;21.83;51.00;98479.66;7064336;28;20279;-85
2021/06/17 04:31:21;;;;;;;7.10;4.97;;;;;;;21.60;52.35;98490.47;7065968;28;20213;-86
2021/06/17 04:34:44;;;;;;;5.03;4.27;;;;;;;21.49;52.76;98480.66;7066021;28;20238;-85
2021/06/17 04:38:06;;;;;;;4.90;4.10;;;;;;;22.00;51.22;98490.22;7066373;28;20225;-85
2021/06/17 04:41:27;;;;;;;6.60;4.60;;;;;;;21.92;51.72;98494.41;7066747;28;20214;-85
2021/06/17 04:44:51;;;;;;;4.83;4.43;;;;;;;21.95;52.23;98493.03;7067090;28;20232;-85
2021/06/17 04:48:13;;;;;;;4.63;4.20;;;;;;;22.36;51.85;98500.66;7067373;28;20194;-83
2021/06/17 04:51:36;;;;;;;5.53;4.70;;;;;;;22.34;50.46;98417.72;7065329;28;20203;-85
2021/06/17 04:54:58;;;;;;;5.37;4.80;;;;;;;23.16;49.49;98502.63;7065475;28;20269;-83
2021/06/17 04:58:22;;;;;;;5.10;4.10;;;;;;;23.61;48.56;98503.97;7065580;28;20223;-82
2021/06/17 05:01:45;;;;;;;5.93;4.03;;;;;;;23.95;47.39;98483.41;7066986;28;20200;-85
2021/06/17 05:05:08;;;;;;;5.37;4.03;;;;;;;23.92;47.85;98503.28;7068079;28;20313;-84
2021/06/17 05:12:10;;;;;;;4.73;4.03;;;;;;;24.10;46.41;98499.69;7067553;28;20269;-83
2021/06/17 05:15:31;;;;;;;4.37;3.97;;;;;;;24.53;45.95;98508.63;7067821;28;20575;-83
2021/06/17 05:18:54;;;;;;;4.27;3.83;;;;;;;25.52;43.05;98511.44;7070805;28;20227;-84
2021/06/17 05:22:16;;;;;;;4.23;3.87;;;;;;;25.42;43.73;98497.06;7071124;28;20221;-83
2021/06/17 05:25:37;;;;;;;4.70;4.00;;;;;;;26.13;42.56;98414.22;7070534;28;20231;-84
2021/06/17 05:28:59;;;;;;;6.23;3.83;;;;;;;27.09;41.57;98487.97;7070767;28;20200;-86
2021/06/17 05:32:21;;;;;;;6.70;3.80;;;;;;;26.65;42.82;98474.25;7070284;28;20204;-84
2021/06/17 05:35:46;;;;;;;5.60;4.13;;;;;;;25.90;44.59;98487.97;7065740;28;20234;-84
2021/06/17 05:39:07;;;;;;;5.33;4.80;;;;;;;26.07;44.75;98482.59;7065001;28;20295;-84
2021/06/17 05:42:30;;;;;;;5.13;4.20;;;;;;;26.69;43.05;98487.13;7065372;28;20196;-85
2021/06/17 05:45:52;;;;;;;6.67;3.70;;;;;;;27.00;42.05;98492.66;7064339;28;20256;-85
2021/06/17 05:49:14;;;;;;;6.50;4.10;;;;;;;27.09;42.50;98483.28;7079493;28;20223;-86
2021/06/17 05:52:37;;;;;;;5.03;3.90;;;;;;;27.06;41.86;98470.06;7084110;28;20204;-83
2021/06/17 05:55:59;;;;;;;8.17;4.07;;;;;;;28.13;40.68;98494.31;7064965;28;20238;-84
2021/06/17 05:59:21;;;;;;;4.10;3.67;;;;;;;28.63;41.01;98489.88;7078868;28;20223;-84
2021/06/17 06:02:42;;;;;;;5.60;3.63;;;;;;;29.71;36.79;98485.41;7073722;27;20215;-85
2021/06/17 06:06:06;;;;;;;3.77;3.43;;;;;;;30.08;35.91;98482.47;7062101;28;20223;-85
2021/06/17 06:09:29;;;;;;;7.13;3.23;;;;;;;30.77;35.14;98482.75;7050274;28;20210;-85
2021/06/17 06:12:50;;;;;;;5.90;3.67;;;;;;;31.35;34.31;98487.94;7062481;28;20219;-85
2021/06/17 06:16:12;;;;;;;4.27;3.87;;;;;;;31.61;33.58;98485.63;7054194;28;20217;-86
2021/06/17 06:19:35;;;;;;;4.67;3.60;;;;;;;31.90;33.60;98485.41;7058293;28;20693;-85
2021/06/17 06:22:57;;;;;;;3.23;2.93;;;;;;;32.37;32.63;98490.03;7061509;28;20288;-85
2021/06/17 06:26:20;;;;;;;3.50;3.10;;;;;;;32.63;31.61;98473.66;7061601;28;20227;-85
2021/06/17 06:29:42;;;;;;;3.50;3.20;;;;;;;32.25;31.42;98455.81;7058169;28;20204;-85
2021/06/17 06:33:04;;;;;;;5.40;3.50;;;;;;;32.68;29.94;98492.94;7059418;28;20200;-85
2021/06/17 06:36:27;;;;;;;5.27;3.30;;;;;;;32.13;30.36;98459.41;7060272;28;20216;-85
2021/06/17 06:39:48;;;;;;;4.87;3.07;;;;;;;32.73;29.42;98455.56;7059270;28;20221;-85
2021/06/17 06:43:14;;;;;;;5.27;3.20;;;;;;;33.26;29.75;98494.94;7042967;28;20206;-85
2021/06/17 06:46:35;;;;;;;3.70;3.20;;;;;;;32.23;31.43;98495.19;7050481;28;20236;-85
2021/06/17 06:49:57;;;;;;;6.07;3.30;;;;;;;33.14;29.45;98491.44;7048719;28;20208;-85
2021/06/17 06:53:18;;;;;;;3.47;2.93;;;;;;;33.79;28.59;98480.31;7062923;28;20197;-85
2021/06/17 06:56:40;;;;;;;3.60;3.30;;;;;;;33.72;28.03;98482.94;7060706;28;20706;-85
2021/06/17 07:00:04;;;;;;;5.13;3.20;;;;;;;34.04;28.33;98487.31;7052249;28;20257;-85
2021/06/17 07:03:27;;;;;;;3.47;3.17;;;;;;;34.12;28.39;98496.66;7069861;28;20197;-85
2021/06/17 07:06:49;;;;;;;4.43;2.97;;;;;;;33.88;27.88;98485.72;7077123;28;20588;-84
2021/06/17 07:10:11;;;;;;;3.87;3.13;;;;;;;34.12;26.69;98500.28;7059923;28;20279;-87
2021/06/17 07:13:33;;;;;;;7.63;3.17;;;;;;;34.02;27.93;98463.66;7059265;28;20565;-85
2021/06/17 07:16:56;;;;;;;3.67;3.27;;;;;;;34.47;27.04;98500.25;7059502;28;20244;-85
2021/06/17 07:20:18;;;;;;;4.93;3.07;;;;;;;34.37;26.48;98495.25;7059243;28;20243;-85
2021/06/17 07:23:40;;;;;;;5.57;3.83;;;;;;;33.04;28.91;98498.38;7059247;28;20568;-85
2021/06/17 07:27:03;;;;;;;4.50;3.00;;;;;;;33.75;27.68;98473.00;7059229;28;20227;-85
2021/06/17 07:30:25;;;;;;;4.70;3.10;;;;;;;34.24;27.93;98477.75;7058661;28;20295;-86
2021/06/17 07:33:48;;;;;;;5.37;2.80;;;;;;;34.46;28.00;98493.03;7058867;28;20204;-85
2021/06/17 07:37:10;;;;;;;3.47;2.80;;;;;;;35.05;27.22;98490.63;7053487;28;20599;-84
2021/06/17 07:40:32;;;;;;;2.83;2.63;;;;;;;35.38;26.26;98499.28;7029863;28;20224;-86
2021/06/17 07:43:53;;;;;;;5.83;3.30;;;;;;;35.63;26.36;98498.50;7030358;28;20217;-85
2021/06/17 07:47:15;;;;;;;6.87;3.03;;;;;;;35.87;25.69;98495.31;7054929;27;20703;-85
2021/06/17 07:50:39;;;;;;;3.53;3.23;;;;;;;35.67;25.60;98493.75;7057798;27;20197;-85
2021/06/17 07:54:01;;;;;;;4.20;3.07;;;;;;;35.54;25.87;98483.13;7058479;28;20209;-85
2021/06/17 07:57:23;;;;;;;5.83;2.80;;;;;;;35.71;26.22;98477.00;7057908;28;20228;-86
2021/06/17 08:00:45;;;;;;;3.77;3.00;;;;;;;36.29;26.61;98490.31;7058513;28;20738;-85
2021/06/17 08:04:07;;;;;;;3.93;3.43;;;;;;;36.05;25.80;98473.09;7037838;28;20208;-85
2021/06/17 08:07:30;;;;;;;3.43;3.13;;;;;;;36.29;24.81;98489.50;7054399;28;20216;-84
2021/06/17 08:10:52;;;;;;;5.80;3.40;;;;;;;36.84;25.09;98486.59;7063316;28;20203;-84
2021/06/17 08:14:16;;;;;;;5.20;3.30;;;;;;;36.95;23.46;98475.50;7064071;28;20204;-85
2021/06/17 08:17:38;;;;;;;4.13;3.20;;;;;;;36.46;25.92;98484.13;7064156;28;20353;-85
2021/06/17 08:21:01;;;;;;;5.13;3.37;;;;;;;35.60;26.14;98437.53;7063181;28;20220;-85
2021/06/17 08:24:24;;;;;;;3.67;3.17;;;;;;;36.84;25.91;98488.63;7063398;28;20349;-85
2021/06/17 08:27:46;;;;;;;3.90;3.60;;;;;;;35.28;29.09;98478.28;7063535;28;20200;-85
2021/06/17 08:31:08;;;;;;;5.77;3.80;;;;;;;33.96;30.84;98471.53;7063193;28;20204;-85
2021/06/17 08:34:30;;;;;;;6.00;3.80;;;;;;;33.80;31.49;98470.78;7063622;28;20238;-85
2021/06/17 08:37:53;;;;;;;7.93;3.60;;;;;;;33.28;32.07;98477.84;7063060;28;20197;-85
2021/06/17 08:41:17;;;;;;;5.40;4.07;;;;;;;33.05;33.13;98490.78;7061550;28;20228;-85
2021/06/17 08:44:39;;;;;;;4.23;3.83;;;;;;;32.43;33.78;98477.47;7062156;28;20240;-85
2021/06/17 08:48:00;;;;;;;6.17;3.70;;;;;;;33.68;32.22;98461.66;7062442;28;20188;-85
2021/06/17 08:51:22;;;;;;;5.03;3.90;;;;;;;34.10;31.09;98449.47;7061203;28;20208;-84
2021/06/17 08:54:44;;;;;;;5.80;4.07;;;;;;;34.09;32.48;98461.84;7060302;28;20227;-85
2021/06/17 08:58:07;;;;;;;4.97;3.83;;;;;;;32.80;32.03;98464.16;7060625;28;20294;-85
2021/06/17 09:01:29;;;;;;;5.63;4.03;;;;;;;33.41;32.28;98455.03;7059790;28;20228;-85
2021/06/17 09:04:50;;;;;;;4.00;3.70;;;;;;;34.74;30.15;98455.22;7060488;28;20276;-85
2021/06/17 09:08:14;;;;;;;6.73;3.73;;;;;;;36.32;27.50;98444.59;7060648;28;20205;-85
2021/06/17 09:11:36;;;;;;;6.67;3.77;;;;;;;34.98;29.61;98466.09;7060785;28;20240;-85
2021/06/17 09:14:59;;;;;;;4.33;3.90;;;;;;;36.38;28.01;98461.94;7060701;28;20781;-85
2021/06/17 09:18:23;;;;;;;4.43;3.57;;;;;;;35.49;28.59;98470.22;7062379;28;20603;-85
2021/06/17 09:21:59;;;;;;;4.17;3.70;;;;;;;37.29;26.88;98457.34;7063087;28;20714;-84
2021/06/17 09:25:21;;;;;;;5.07;3.70;;;;;;;37.05;26.07;98441.84;7061823;28;20225;-85
2021/06/17 09:28:57;;;;;;;5.03;3.67;;;;;;;38.00;25.08;98465.19;7061900;28;20208;-85
2021/06/17 09:32:22;;;;;;;3.43;3.13;;;;;;;38.50;24.33;98465.06;7059486;28;20196;-85
2021/06/17 09:35:58;;;;;;;3.90;2.80;;;;;;;39.45;20.79;98474.59;7061395;28;20232;-84
2021/06/17 09:39:21;;;;;;;3.70;3.33;;;;;;;38.74;21.82;98480.44;7060560;28;20215;-84
2021/06/17 09:42:42;;;;;;;4.80;2.47;;;;;;;39.80;18.51;98474.59;7060758;28;20576;-84
2021/06/17 09:46:06;;;;;;;3.00;2.70;;;;;;;39.94;20.62;98485.06;7046706;22;20239;-85
2021/06/17 09:49:29;;;;;;;3.83;3.15;;;;;;;38.44;22.97;98479.94;6958744;28;20214;-85
2021/06/17 09:52:51;;;;;;;5.68;3.35;;;;;;;38.42;21.85;98500.06;6949643;28;20203;-84
2021/06/17 09:56:15;;;;;;;3.97;3.30;;;;;;;37.80;23.42;98501.25;6962677;28;20582;-84
2021/06/17 09:59:40;;;;;;;6.07;3.50;;;;;;;38.01;22.81;98501.41;6977429;28;20229;-84
2021/06/17 10:03:15;;;;;;;3.00;2.77;;;;;;;38.03;22.44;98482.09;6977212;28;20785;-85
2021/06/17 10:06:39;;;;;;;6.57;3.27;;;;;;;38.38;22.19;98481.50;6977414;28;21031;-83
2021/06/17 10:10:01;;;;;;;4.30;3.20;;;;;;;39.61;20.85;98482.66;6977047;28;20213;-84
2021/06/17 10:13:26;;;;;;;3.42;3.05;;;;;;;38.66;21.70;98498.56;6976559;28;20206;-85
2021/06/17 10:16:48;;;;;;;4.32;2.85;;;;;;;39.03;20.05;98493.44;6977016;28;20229;-85
2021/06/17 10:20:11;;;;;;;4.55;2.97;;;;;;;38.91;19.58;98497.44;6977411;28;20222;-84
2021/06/17 10:23:36;;;;;;;4.45;3.25;;;;;;;39.12;21.09;98491.03;6976102;28;20213;-85
2021/06/17 10:26:59;;;;;;;3.03;2.60;;;;;;;37.08;20.45;98507.75;6977004;28;20733;-84
2021/06/17 10:30:39;;;;;;;3.17;2.88;;;;;;;39.03;19.40;98485.78;6978553;28;20609;-85
2021/06/17 10:34:30;;;;;;;4.18;2.85;;;;;;;39.27;20.33;98490.69;6978416;28;20217;-84
2021/06/17 10:37:53;;;;;;;4.07;3.00;;;;;;;38.70;20.41;98459.88;6978799;28;20233;-84
2021/06/17 10:41:18;;;;;;;7.43;3.55;;;;;;;38.60;21.05;98497.31;6977026;28;20233;-85
2021/06/17 10:44:44;;;;;;;3.80;3.13;;;;;;;39.02;20.69;98489.03;6978760;28;20883;-85
2021/06/17 10:48:12;;;;;;;3.10;2.80;;;;;;;38.13;20.58;98492.63;6983868;28;20194;-84
2021/06/17 10:51:33;;;;;;;6.60;3.30;;;;;;;38.40;20.67;98479.06;6991240;28;20285;-85
2021/06/17 10:54:59;;;;;;;3.50;3.20;;;;;;;39.32;20.79;98498.75;6983114;28;20207;-85
2021/06/17 10:59:03;;;;;;;3.05;2.78;;;;;;;39.06;19.90;98496.28;6984639;28;20212;-83
2021/06/17 11:02:27;;;;;;;5.17;2.90;;;;;;;37.39;21.05;98491.22;6992336;28;20682;-84
2021/06/17 11:05:53;;;;;;;4.87;3.07;;;;;;;38.40;19.79;98484.72;6988929;28;20253;-85
2021/06/17 11:09:42;;;;;;;4.93;3.07;;;;;;;38.19;19.88;98467.72;6978417;28;20329;-84
2021/06/17 11:13:04;;;;;;;4.67;3.03;;;;;;;38.47;19.31;98476.31;6977374;28;20209;-85
2021/06/17 11:16:31;;;;;;;4.83;3.00;;;;;;;38.52;19.91;98462.66;6980642;28;20232;-84
2021/06/17 11:20:00;;;;;;;4.87;2.80;;;;;;;38.52;18.94;98454.22;6989170;28;20279;-84
2021/06/17 11:23:28;;;;;;;4.23;3.03;;;;;;;37.56;20.26;98467.25;6988388;28;20205;-85
2021/06/17 11:26:51;;;;;;;3.97;2.80;;;;;;;37.49;21.36;98442.66;6982304;28;20230;-85
2021/06/17 11:30:14;;;;;;;3.40;3.10;;;;;;;38.63;19.92;98452.25;6975323;28;20213;-84
2021/06/17 11:33:43;;;;;;;6.93;2.93;;;;;;;39.59;18.06;98456.81;6975535;28;20293;-85
2021/06/17 11:37:14;;;;;;;3.43;3.13;;;;;;;38.66;19.51;98445.00;6974700;28;20250;-85
2021/06/17 11:40:35;;;;;;;5.90;3.10;;;;;;;38.89;19.91;98454.75;6976005;28;20214;-85
2021/06/17 11:44:00;;;;;;;3.72;2.88;;;;;;;39.04;18.99;98447.94;6976565;28;20676;-85
2021/06/17 11:47:22;;;;;;;4.05;3.20;;;;;;;36.99;20.45;98468.72;6975186;28;20602;-85
2021/06/17 11:50:44;;;;;;;3.25;2.92;;;;;;;38.43;18.89;98424.78;6975387;28;20573;-85
2021/06/17 11:54:07;;;;;;;4.40;2.90;;;;;;;38.34;20.12;98456.13;6975646;28;20207;-85
2021/06/17 11:57:28;;;;;;;5.57;3.17;;;;;;;38.21;19.16;98460.50;6974809;28;20225;-84
2021/06/17 12:00:51;;;;;;;3.50;2.70;;;;;;;38.97;19.79;98459.19;6972952;28;20223;-85
2021/06/17 12:04:13;;;;;;;4.07;3.08;;;;;;;39.49;19.62;98460.47;6973931;28;20206;-85
2021/06/17 12:07:36;;;;;;;5.07;3.00;;;;;;;39.20;18.34;98451.16;6975211;28;20230;-84
2021/06/17 12:11:01;;;;;;;3.67;2.47;;;;;;;37.76;19.76;98438.47;6990258;28;20202;-83
2021/06/17 12:14:40;;;;;;;3.95;2.88;;;;;;;39.88;17.90;98441.50;6995641;28;20199;-85
2021/06/17 12:18:04;;;;;;;5.60;2.90;;;;;;;40.58;17.92;98442.13;6974726;28;20658;-85
2021/06/17 12:21:29;;;;;;;4.72;2.78;;;;;;;40.72;17.09;98444.88;6972979;28;20336;-85
2021/06/17 12:24:51;;;;;;;3.55;2.90;;;;;;;39.18;18.28;98442.28;6974859;28;20202;-86
2021/06/17 12:28:16;;;;;;;3.08;2.70;;;;;;;40.75;17.32;98434.75;6973841;28;20207;-85
2021/06/17 12:31:40;;;;;;;5.18;3.00;;;;;;;40.20;16.78;98433.78;6973293;28;20213;-85
2021/06/17 12:35:12;;;;;;;2.88;2.60;;;;;;;38.33;18.42;98434.78;6973871;28;20287;-85
2021/06/17 12:38:35;;;;;;;3.20;2.90;;;;;;;38.17;18.30;98416.59;6974100;28;20564;-85
2021/06/17 12:41:57;;;;;;;4.97;2.70;;;;;;;38.46;17.72;98424.81;6992176;28;20423;-85
2021/06/17 12:45:21;;;;;;;3.17;2.60;;;;;;;37.70;17.81;98423.16;7003483;28;20236;-85
2021/06/17 12:49:10;;;;;;;4.25;3.00;;;;;;;39.09;17.17;98421.34;6981628;28;20211;-85
2021/06/17 12:52:32;;;;;;;3.23;2.70;;;;;;;38.85;18.47;98417.25;6979070;28;20544;-85
2021/06/17 12:55:55;;;;;;;2.63;2.42;;;;;;;39.79;16.75;98410.06;6980343;28;20706;-84
2021/06/17 12:59:17;;;;;;;2.60;2.40;;;;;;;40.53;15.85;98408.59;6980591;28;20686;-84
2021/06/17 13:02:45;;;;;;;4.68;2.90;;;;;;;40.26;16.05;98420.84;6980169;28;20233;-85
2021/06/17 13:06:07;;;;;;;4.53;2.72;;;;;;;39.50;16.51;98409.25;6981685;28;20230;-85
2021/06/17 13:09:30;;;;;;;3.38;2.72;;;;;;;39.44;16.60;98413.69;6981111;28;20705;-84
2021/06/17 13:12:53;;;;;;;3.22;2.85;;;;;;;38.94;17.22;98402.78;6980392;28;20213;-85
2021/06/17 13:16:18;;;;;;;3.17;2.90;;;;;;;39.55;16.75;98411.66;6979993;28;20229;-85
2021/06/17 13:19:50;;;;;;;3.00;2.80;;;;;;;39.65;17.04;98401.56;6980668;28;20570;-86
2021/06/17 13:23:15;;;;;;;4.10;2.65;;;;;;;40.09;16.31;98399.06;6979891;28;20198;-85
2021/06/17 13:26:37;;;;;;;3.20;2.90;;;;;;;40.71;16.59;98408.50;6980357;28;20310;-84
2021/06/17 13:30:02;;;;;;;3.73;2.60;;;;;;;40.73;16.80;98398.38;6980015;28;20213;-85
2021/06/17 13:33:24;;;;;;;5.90;3.00;;;;;;;40.45;17.34;98406.22;6979972;28;20340;-85
2021/06/17 13:36:47;;;;;;;3.40;3.10;;;;;;;40.55;16.36;98396.91;6979624;28;20225;-84
2021/06/17 13:40:10;;;;;;;4.70;2.85;;;;;;;40.65;15.94;98399.66;6981908;28;20589;-85
2021/06/17 13:43:32;;;;;;;3.72;3.03;;;;;;;41.06;15.98;98402.63;7006892;28;20210;-84
2021/06/17 13:46:54;;;;;;;5.15;2.97;;;;;;;41.04;15.56;98405.91;7007007;28;20226;-86
2021/06/17 13:50:15;;;;;;;6.13;2.92;;;;;;;38.47;18.26;98386.13;7007427;28;20206;-85
2021/06/17 13:53:39;;;;;;;4.90;3.00;;;;;;;40.05;17.34;98387.78;7007186;28;20566;-85
2021/06/17 13:57:01;;;;;;;3.80;2.80;;;;;;;40.95;16.46;98365.16;7007542;28;20237;-85
2021/06/17 14:00:22;;;;;;;5.28;2.72;;;;;;;40.89;16.61;98384.56;7006292;28;20246;-85
2021/06/17 14:03:44;;;;;;;5.07;3.00;;;;;;;40.91;15.91;98367.97;7006884;28;20237;-84
2021/06/17 14:07:06;;;;;;;3.50;2.78;;;;;;;39.87;16.38;98372.94;7006575;28;20230;-85
2021/06/17 14:10:31;;;;;;;3.67;2.83;;;;;;;39.60;16.22;98345.56;7007068;28;20252;-84
2021/06/17 14:13:52;;;;;;;4.82;2.67;;;;;;;39.93;16.66;98362.81;7006986;28;20212;-84
2021/06/17 14:17:14;;;;;;;6.80;2.88;;;;;;;38.51;17.71;98361.59;7007266;28;20705;-85
2021/06/17 14:20:38;;;;;;;3.10;2.72;;;;;;;39.64;16.51;98357.63;7006509;28;20230;-86
2021/06/17 14:24:00;;;;;;;4.35;2.72;;;;;;;39.22;16.17;98361.31;7007455;28;20210;-85
2021/06/17 14:27:23;;;;;;;4.55;2.80;;;;;;;39.61;16.59;98361.28;7007457;28;20222;-86
2021/06/17 14:30:45;;;;;;;3.67;2.73;;;;;;;39.37;16.42;98357.25;7005767;28;20208;-85
2021/06/17 14:34:09;;;;;;;4.25;2.80;;;;;;;39.64;17.28;98347.16;7006487;28;20600;-85
2021/06/17 14:37:30;;;;;;;4.88;3.35;;;;;;;40.23;16.63;98346.16;7006224;28;20229;-84
2021/06/17 14:40:52;;;;;;;8.90;2.97;;;;;;;40.51;16.42;98339.53;7005446;28;20232;-85
2021/06/17 14:44:16;;;;;;;4.05;2.83;;;;;;;40.69;16.05;98338.25;7005341;28;20210;-84
2021/06/17 14:47:38;;;;;;;4.50;3.03;;;;;;;39.98;17.49;98320.03;7005688;28;20843;-86
2021/06/17 14:51:00;;;;;;;5.45;2.97;;;;;;;40.37;16.41;98342.47;7005441;28;20206;-84
2021/06/17 14:54:21;;;;;;;7.15;3.13;;;;;;;40.22;16.45;98343.75;7005948;28;20265;-85
2021/06/17 14:57:43;;;;;;;4.78;3.05;;;;;;;40.28;17.88;98356.22;7005314;28;20234;-85
2021/06/17 15:01:06;;;;;;;4.07;3.00;;;;;;;39.76;17.04;98310.03;7005373;28;20232;-85
2021/06/17 15:04:28;;;;;;;4.72;2.95;;;;;;;39.36;16.37;98354.84;7005416;28;20198;-85
2021/06/17 15:07:49;;;;;;;4.78;3.30;;;;;;;39.27;17.45;98337.50;7005443;28;20225;-85
2021/06/17 15:11:11;;;;;;;4.50;2.90;;;;;;;39.36;17.29;98354.84;7003734;28;20200;-85
2021/06/17 15:14:33;;;;;;;5.20;3.35;;;;;;;39.43;17.83;98352.81;7005530;28;20206;-85
2021/06/17 15:17:56;;;;;;;6.15;2.75;;;;;;;38.77;18.06;98349.97;7005479;28;20236;-85
2021/06/17 15:21:18;;;;;;;4.38;3.13;;;;;;;38.63;18.21;98344.31;7005196;28;20222;-85
2021/06/17 15:24:40;;;;;;;4.15;3.08;;;;;;;38.41;18.92;98332.19;7005787;28;20233;-85
2021/06/17 15:28:02;;;;;;;3.95;3.35;;;;;;;38.62;18.22;98348.34;7005603;28;20578;-85
2021/06/17 15:31:24;;;;;;;4.15;2.92;;;;;;;39.33;17.57;98348.03;7003466;28;20202;-85
2021/06/17 15:34:47;;;;;;;4.53;3.25;;;;;;;39.19;18.08;98297.22;7004983;28;20197;-85
2021/06/17 15:38:08;;;;;;;4.00;3.22;;;;;;;37.39;18.58;98330.88;7004330;28;20206;-85
2021/06/17 15:41:30;;;;;;;8.27;3.67;;;;;;;38.11;18.85;98328.06;6990393;28;20218;-85
2021/06/17 15:44:52;;;;;;;7.10;3.30;;;;;;;37.83;19.21;98331.53;6976998;28;20199;-85
2021/06/17 15:48:13;;;;;;;4.10;3.00;;;;;;;38.46;18.40;98345.09;6966950;28;20205;-84
2021/06/17 15:51:36;;;;;;;3.37;2.90;;;;;;;38.89;18.33;98333.50;6951224;28;20771;-84
2021/06/17 20:38:08;;;;;;;8.30;4.43;;;;;;;27.70;44.52;98297.50;6996276;28;20235;-83
2021/06/17 20:41:55;;;;;;;4.30;3.90;;;;;;;28.18;44.30;98347.19;6986495;28;20226;-83
2021/06/17 20:46:22;;;;;;;;;;;;;;;;;;;;;
2021/06/17 20:50:28;;;;;;;7.17;4.53;;;;;;;26.22;46.80;98243.69;6911726;28;20217;-83
2021/06/17 20:58:16;;;;;;;5.00;4.13;;;;;;;25.87;48.22;98284.16;6987647;28;20241;-83
